createdAt,value
2018-11-11T00:01:41.119Z,99659.41
2018-11-11T00:06:45.259Z,99647.58
2018-11-11T00:11:49.038Z,99652.47
2018-11-11T00:16:53.638Z,99646.92
2018-11-11T00:21:57.499Z,99646.66
2018-11-11T00:27:01.441Z,99655.05
2018-11-11T00:32:05.031Z,99666.47
2018-11-11T00:37:09.186Z,99665.61
2018-11-11T00:42:12.790Z,99663.77
2018-11-11T00:47:16.388Z,99662.88
2018-11-11T00:52:20.241Z,99658.22
2018-11-11T00:57:24.068Z,99664.28
2018-11-11T01:02:27.969Z,99668.92
2018-11-11T01:07:31.482Z,99672.28
2018-11-11T01:12:35.002Z,99673.30
2018-11-11T01:17:39.139Z,99675.24
2018-11-11T01:22:43.139Z,99670.66
2018-11-11T01:27:46.550Z,99677.12
2018-11-11T01:32:50.087Z,99668.00
2018-11-11T01:37:53.750Z,99667.50
2018-11-11T01:42:57.887Z,99678.20
2018-11-11T01:48:01.631Z,99684.31
2018-11-11T01:53:05.974Z,99671.27
2018-11-11T01:58:10.022Z,99674.68
2018-11-11T02:03:13.740Z,99672.80
2018-11-11T02:08:17.587Z,99663.84
2018-11-11T02:13:21.630Z,99664.84
2018-11-11T02:18:25.726Z,99681.25
2018-11-11T02:23:29.575Z,99690.46
2018-11-11T02:28:33.321Z,99688.80
2018-11-11T02:33:37.419Z,99694.04
2018-11-11T02:38:41.235Z,99686.41
2018-11-11T02:43:45.077Z,99678.45
2018-11-11T02:48:49.272Z,99676.00
2018-11-11T02:53:52.839Z,99681.16
2018-11-11T02:58:56.522Z,99679.72
2018-11-11T03:04:00.075Z,99686.81
2018-11-11T03:09:04.905Z,99697.09
2018-11-11T03:14:08.579Z,99705.14
2018-11-11T03:19:12.499Z,99709.73
2018-11-11T03:24:16.207Z,99714.02
2018-11-11T03:29:19.822Z,99716.97
2018-11-11T03:34:23.737Z,99726.81
2018-11-11T03:39:27.471Z,99730.28
2018-11-11T03:44:31.223Z,99725.80
2018-11-11T03:49:34.904Z,99749.59
2018-11-11T03:54:38.764Z,99737.92
2018-11-11T03:59:42.115Z,99731.74
2018-11-11T04:04:45.522Z,99736.34
2018-11-11T04:09:49.533Z,99744.69
2018-11-11T04:14:53.330Z,99743.53
2018-11-11T04:19:56.931Z,99744.34
2018-11-11T04:25:01.493Z,99756.61
2018-11-11T04:30:06.684Z,99762.22
2018-11-11T04:35:10.439Z,99762.34
2018-11-11T04:40:14.493Z,99764.48
2018-11-11T04:45:18.157Z,99764.73
2018-11-11T04:50:21.955Z,99754.27
2018-11-11T04:55:25.815Z,99744.63
2018-11-11T05:00:29.937Z,99748.46
2018-11-11T05:05:33.759Z,99756.16
2018-11-11T05:10:37.670Z,99757.90
2018-11-11T05:15:41.823Z,99762.08
2018-11-11T05:20:45.913Z,99761.88
2018-11-11T05:25:49.903Z,99756.01
2018-11-11T05:30:54.002Z,99768.34
2018-11-11T05:35:58.228Z,99746.11
2018-11-11T05:41:02.141Z,99755.13
2018-11-11T05:46:06.217Z,99743.20
2018-11-11T05:51:10.230Z,99732.70
2018-11-11T05:56:14.306Z,99729.99
2018-11-11T06:01:18.284Z,99738.45
2018-11-11T06:06:22.472Z,99747.18
2018-11-11T06:11:26.165Z,99737.76
2018-11-11T06:16:30.010Z,99743.27
2018-11-11T06:21:33.576Z,99732.59
2018-11-11T06:26:37.156Z,99734.80
2018-11-11T06:31:40.570Z,99728.99
2018-11-11T06:36:43.885Z,99732.45
2018-11-11T06:41:47.225Z,99721.99
2018-11-11T06:46:50.746Z,99727.34
2018-11-11T06:51:54.687Z,99760.94
2018-11-11T06:56:58.643Z,99745.90
2018-11-11T07:02:02.365Z,99739.63
2018-11-11T07:07:06.201Z,99738.48
2018-11-11T07:12:09.874Z,99749.23
2018-11-11T07:17:13.470Z,99737.73
2018-11-11T07:22:17.351Z,99734.68
2018-11-11T07:27:20.913Z,99729.00
2018-11-11T07:32:24.510Z,99739.44
2018-11-11T07:37:28.055Z,99754.30
2018-11-11T07:42:32.274Z,99758.48
2018-11-11T07:47:35.833Z,99753.25
2018-11-11T07:52:39.501Z,99751.23
2018-11-11T07:57:43.283Z,99740.19
2018-11-11T08:02:47.570Z,99744.16
2018-11-11T08:13:33.995Z,99786.27
2018-11-11T08:18:37.748Z,99797.30
2018-11-11T08:23:41.236Z,99797.99
2018-11-11T08:28:45.499Z,99796.63
2018-11-11T08:33:49.440Z,99782.83
2018-11-11T08:38:53.191Z,99770.91
2018-11-11T08:43:56.725Z,99785.52
2018-11-11T08:49:00.371Z,99795.97
2018-11-11T08:54:04.355Z,99801.58
2018-11-11T08:59:07.823Z,99796.78
2018-11-11T09:04:11.347Z,99814.89
2018-11-11T09:09:14.814Z,99823.30
2018-11-11T09:14:18.635Z,99844.57
2018-11-11T09:19:22.626Z,99867.31
2018-11-11T09:24:27.738Z,99884.19
2018-11-11T09:29:31.652Z,99885.70
2018-11-11T09:34:35.541Z,99886.13
2018-11-11T09:39:39.289Z,99886.00
2018-11-11T09:44:43.152Z,99894.68
2018-11-11T09:49:46.998Z,99924.61
2018-11-11T09:54:50.673Z,99933.63
2018-11-11T09:59:54.509Z,99918.58
2018-11-11T10:05:10.276Z,99931.11
2018-11-11T10:10:50.612Z,99930.77
2018-11-11T10:16:34.789Z,99948.45
2018-11-11T10:23:51.443Z,99950.56
2018-11-11T10:29:05.517Z,99967.62
2018-11-11T10:34:18.599Z,99951.41
2018-11-11T10:39:36.884Z,99949.01
2018-11-11T10:44:47.093Z,99955.41
2018-11-11T10:49:53.708Z,99946.58
2018-11-11T10:54:57.350Z,99930.16
2018-11-11T11:00:01.227Z,99920.84
2018-11-11T11:05:09.893Z,99914.72
2018-11-11T11:10:13.957Z,99912.69
2018-11-11T11:15:19.099Z,99924.43
2018-11-11T11:20:22.968Z,99937.58
2018-11-11T11:25:27.040Z,99909.63
2018-11-11T11:30:30.738Z,99907.78
2018-11-11T11:35:34.576Z,99908.67
2018-11-11T11:40:37.961Z,99904.98
2018-11-11T11:45:41.342Z,99901.73
2018-11-11T11:50:44.888Z,99893.16
2018-11-11T11:55:48.742Z,99894.64
2018-11-11T12:00:52.362Z,99894.19
2018-11-11T12:05:56.111Z,99871.84
2018-11-11T12:12:10.334Z,99857.33
2018-11-11T12:17:14.157Z,99869.06
2018-11-11T12:22:17.843Z,99871.69
2018-11-11T12:27:21.561Z,99867.66
2018-11-11T12:32:25.098Z,99893.75
2018-11-11T12:37:28.742Z,99906.84
2018-11-11T12:42:32.226Z,99906.08
2018-11-11T12:47:37.128Z,99918.19
2018-11-11T12:52:40.730Z,99922.81
2018-11-11T12:57:44.293Z,99924.26
2018-11-11T13:02:47.600Z,99931.81
2018-11-11T13:07:50.978Z,99930.05
2018-11-11T13:12:54.272Z,99924.69
2018-11-11T13:17:58.418Z,99919.74
2018-11-11T13:23:03.448Z,99942.40
2018-11-11T13:28:07.201Z,99937.69
2018-11-11T13:33:10.862Z,99936.91
2018-11-11T13:38:14.718Z,99935.64
2018-11-11T13:43:18.850Z,99944.03
2018-11-11T13:48:22.534Z,99950.38
2018-11-11T13:53:26.292Z,99953.50
2018-11-11T13:58:30.602Z,99957.60
2018-11-11T14:03:34.390Z,99945.61
2018-11-11T14:08:38.108Z,99951.58
2018-11-11T14:13:41.609Z,99957.75
2018-11-11T14:18:45.332Z,99965.40
2018-11-11T14:23:48.649Z,99963.77
2018-11-11T14:28:52.973Z,99973.84
2018-11-11T14:33:56.785Z,99977.57
2018-11-11T14:39:00.442Z,99990.80
2018-11-11T14:44:03.912Z,100002.73
2018-11-11T14:49:08.173Z,100001.46
2018-11-11T14:54:11.809Z,100003.34
2018-11-11T14:59:15.802Z,100007.98
2018-11-11T15:04:21.600Z,100007.06
2018-11-11T15:09:25.294Z,100025.32
2018-11-11T15:14:28.821Z,100023.58
2018-11-11T15:19:32.447Z,100034.59
2018-11-11T15:24:35.529Z,100041.23
2018-11-11T15:29:38.976Z,100044.47
2018-11-11T15:34:42.473Z,100053.67
2018-11-11T15:39:45.881Z,100040.05
2018-11-11T15:44:49.181Z,100044.16
2018-11-11T15:49:52.733Z,100049.59
2018-11-11T15:54:56.253Z,100041.09
2018-11-11T15:59:59.822Z,100043.47
2018-11-11T16:05:03.855Z,100050.23
2018-11-11T16:10:08.732Z,100052.00
2018-11-11T16:15:18.451Z,100046.34
2018-11-11T16:20:23.333Z,100037.73
2018-11-11T16:25:27.016Z,100039.08
2018-11-11T16:30:33.232Z,100049.12
2018-11-11T16:35:42.504Z,100047.37
2018-11-11T16:40:46.051Z,100048.92
2018-11-11T16:45:49.540Z,100062.84
2018-11-11T16:50:53.429Z,100059.45
2018-11-11T16:55:56.749Z,100053.31
2018-11-11T17:01:00.303Z,100048.41
2018-11-11T17:06:05.236Z,100059.06
2018-11-11T17:11:08.953Z,100079.22
2018-11-11T17:16:20.898Z,100087.80
2018-11-11T17:21:24.788Z,100081.06
2018-11-11T17:26:28.564Z,100082.09
2018-11-11T17:31:32.032Z,100097.34
2018-11-11T17:36:36.326Z,100108.88
2018-11-11T17:41:40.885Z,100099.89
2018-11-11T17:46:44.592Z,100095.48
2018-11-11T17:51:48.223Z,100096.38
2018-11-11T17:56:52.294Z,100096.05
2018-11-11T18:01:55.818Z,100114.17
2018-11-11T18:06:59.651Z,100109.56
2018-11-11T18:12:03.557Z,100107.06
2018-11-11T18:17:07.276Z,100121.91
2018-11-11T18:22:14.465Z,100118.22
2018-11-11T18:27:19.121Z,100107.91
2018-11-11T18:32:23.598Z,100103.18
2018-11-11T18:37:27.572Z,100106.97
2018-11-11T18:42:32.438Z,100103.41
2018-11-11T18:47:36.988Z,100109.84
2018-11-11T18:52:43.805Z,100118.22
2018-11-11T18:57:47.961Z,100130.31
2018-11-11T19:02:56.254Z,100141.29
2018-11-11T19:08:03.554Z,100126.23
2018-11-11T19:13:09.989Z,100131.78
2018-11-11T19:18:14.180Z,100133.62
2018-11-11T19:23:19.303Z,100131.99
2018-11-11T19:28:24.802Z,100127.41
2018-11-11T19:33:30.761Z,100127.79
2018-11-11T19:38:34.790Z,100131.48
2018-11-11T19:43:38.527Z,100128.51
2018-11-11T19:48:42.938Z,100125.23
2018-11-11T19:53:46.829Z,100125.95
2018-11-11T19:58:50.695Z,100117.78
2018-11-11T20:03:54.375Z,100122.69
2018-11-11T20:08:58.855Z,100134.66
2018-11-11T20:14:02.677Z,100147.45
2018-11-11T20:19:06.493Z,100137.55
2018-11-11T20:24:10.117Z,100144.92
2018-11-11T20:29:13.907Z,100136.19
2018-11-11T20:34:17.660Z,100132.50
2018-11-11T20:39:21.676Z,100138.87
2018-11-11T20:44:26.361Z,100146.55
2018-11-11T20:49:30.461Z,100145.73
2018-11-11T20:54:37.790Z,100133.34
2018-11-11T20:59:41.723Z,100139.71
2018-11-11T21:04:45.507Z,100131.13
2018-11-11T21:09:49.228Z,100127.95
2018-11-11T21:14:53.041Z,100121.09
2018-11-11T21:19:56.458Z,100121.83
2018-11-11T21:25:00.227Z,100116.11
2018-11-11T21:30:04.000Z,100114.87
2018-11-11T21:35:07.625Z,100127.58
2018-11-11T21:40:13.750Z,100134.24
2018-11-11T21:45:18.598Z,100136.27
2018-11-11T21:50:23.270Z,100166.59
2018-11-11T21:55:26.765Z,100153.88
2018-11-11T22:00:30.311Z,100154.09
2018-11-11T22:05:33.837Z,100165.16
2018-11-11T22:10:37.444Z,100169.53
2018-11-11T22:15:41.030Z,100173.95
2018-11-11T22:20:44.677Z,100187.23
2018-11-11T22:25:48.022Z,100208.11
2018-11-11T22:30:51.503Z,100222.82
2018-11-11T22:35:55.099Z,100210.30
2018-11-11T22:40:58.911Z,100209.66
2018-11-11T22:46:02.353Z,100219.04
2018-11-11T22:51:06.030Z,100225.14
2018-11-11T22:56:09.354Z,100234.36
2018-11-11T23:01:18.125Z,100226.55
2018-11-11T23:06:21.453Z,100224.09
2018-11-11T23:11:26.557Z,100217.50
2018-11-11T23:16:31.171Z,100246.63
2018-11-11T23:21:36.228Z,100228.77
2018-11-11T23:26:40.261Z,100229.86
2018-11-11T23:31:44.528Z,100228.02
2018-11-11T23:36:54.525Z,100242.14
2018-11-11T23:42:13.266Z,100247.97
2018-11-11T23:47:17.532Z,100250.98
2018-11-11T23:52:23.036Z,100249.70
2018-11-11T23:57:27.330Z,100251.67
